Youngsville, New Mexico
Current Conditions -  °F | °C
As of 3:55 AM on Friday 19 Dec 2014 (Local Time) from KLAM Reporting Station
Clear Clear  
Wind Chill: -5°   Ceiling: Unl
Heat Index: -3°   Visibility: 10mi
Dew Point: -8°   Wind: 5mph
Humidity: 68%   Direction: 360°N
Pressure: 30.12"   Gusts: NA
Location:  36.19°N, 106.56°W
Report Text: KLAM 191055Z AUTO 36004KT 10SM CLR M02/M08 A3012 RMK AO2 T10251076
Loading
Personal Weather Stations






























Interactive Weather Map New forecast layout! Learn more

10-Day Weather Forecast

Advertisements
Track Severe Weather on mobile